createdAt,value
2022-09-28T00:01:07.632Z,100.00
2022-09-28T00:03:35.747Z,100.00
2022-09-28T00:06:05.391Z,100.00
2022-09-28T00:08:33.418Z,100.00
2022-09-28T00:11:02.040Z,100.00
2022-09-28T00:13:33.281Z,100.00
2022-09-28T00:16:03.399Z,100.00
2022-09-28T00:18:32.219Z,100.00
2022-09-28T00:21:05.830Z,100.00
2022-09-28T00:23:34.462Z,100.00
2022-09-28T00:26:05.853Z,100.00
2022-09-28T00:28:35.286Z,100.00
2022-09-28T00:31:03.323Z,100.00
2022-09-28T00:33:31.453Z,100.00
2022-09-28T00:36:00.211Z,100.00
2022-09-28T00:38:29.493Z,100.00
2022-09-28T00:40:57.587Z,100.00
2022-09-28T00:43:26.458Z,100.00
2022-09-28T00:46:00.357Z,100.00
2022-09-28T00:48:32.283Z,100.00
2022-09-28T00:51:01.915Z,100.00
2022-09-28T00:53:32.823Z,100.00
2022-09-28T00:56:04.901Z,100.00
2022-09-28T00:58:36.273Z,100.00
2022-09-28T01:01:06.263Z,100.00
2022-09-28T01:03:35.296Z,100.00
2022-09-28T01:06:06.203Z,100.00
2022-09-28T01:08:35.479Z,100.00
2022-09-28T01:11:03.786Z,100.00
2022-09-28T01:13:32.985Z,100.00
2022-09-28T01:16:10.161Z,100.00
2022-09-28T01:18:47.716Z,100.00
2022-09-28T01:21:20.136Z,100.00
2022-09-28T01:24:09.754Z,100.00
2022-09-28T01:27:04.131Z,100.00
2022-09-28T01:29:48.614Z,100.00
2022-09-28T01:32:24.992Z,100.00
2022-09-28T01:34:58.796Z,100.00
2022-09-28T01:37:33.230Z,100.00
2022-09-28T01:40:04.356Z,100.00
2022-09-28T01:42:38.429Z,100.00
2022-09-28T01:45:13.258Z,100.00
2022-09-28T01:47:42.072Z,100.00
2022-09-28T01:50:14.096Z,100.00
2022-09-28T01:52:48.339Z,100.00
2022-09-28T01:55:25.137Z,100.00
2022-09-28T01:57:58.409Z,100.00
2022-09-28T02:00:27.787Z,100.00
2022-09-28T02:03:01.753Z,100.00
2022-09-28T02:05:33.537Z,100.00
2022-09-28T02:08:07.898Z,100.00
2022-09-28T02:10:42.581Z,100.00
2022-09-28T02:13:16.445Z,100.00
2022-09-28T02:15:51.857Z,100.00
2022-09-28T02:18:20.086Z,100.00
2022-09-28T02:20:53.910Z,100.00
2022-09-28T02:23:24.593Z,100.00
2022-09-28T02:25:57.126Z,100.00
2022-09-28T02:28:26.407Z,100.00
2022-09-28T02:30:54.494Z,100.00
2022-09-28T02:33:27.040Z,100.00
2022-09-28T02:35:55.409Z,100.00
2022-09-28T02:38:23.374Z,100.00
2022-09-28T02:41:02.736Z,100.00
2022-09-28T02:43:40.728Z,100.00
2022-09-28T02:46:19.055Z,100.00
2022-09-28T02:49:17.332Z,100.00
2022-09-28T02:52:01.941Z,100.00
2022-09-28T02:54:42.447Z,100.00
2022-09-28T02:57:29.514Z,100.00
2022-09-28T03:00:08.228Z,100.00
2022-09-28T03:02:43.330Z,100.00
2022-09-28T03:05:19.453Z,100.00
2022-09-28T03:07:55.683Z,100.00
2022-09-28T03:10:29.539Z,100.00
2022-09-28T03:12:59.081Z,100.00
2022-09-28T03:15:30.694Z,100.00
2022-09-28T03:17:59.373Z,100.00
2022-09-28T03:20:28.174Z,100.00
2022-09-28T03:23:20.110Z,100.00
2022-09-28T03:25:44.453Z,100.00
2022-09-28T03:28:12.463Z,100.00
2022-09-28T03:30:43.060Z,100.00
2022-09-28T03:33:11.008Z,100.00
2022-09-28T03:35:38.920Z,100.00
2022-09-28T03:38:06.874Z,100.00
2022-09-28T03:40:34.938Z,100.00
2022-09-28T03:43:02.972Z,100.00
2022-09-28T03:45:30.931Z,100.00
2022-09-28T03:48:00.430Z,100.00
2022-09-28T03:50:28.762Z,100.00
2022-09-28T03:52:56.703Z,100.00
2022-09-28T03:55:24.648Z,100.00
2022-09-28T03:57:56.135Z,100.00
2022-09-28T04:00:24.331Z,100.00
2022-09-28T04:02:52.247Z,100.00
2022-09-28T04:05:21.500Z,100.00
2022-09-28T04:07:49.557Z,100.00
2022-09-28T04:10:17.667Z,100.00
2022-09-28T04:12:45.994Z,100.00
2022-09-28T04:15:14.083Z,100.00
2022-09-28T04:17:42.033Z,100.00
2022-09-28T04:20:10.607Z,100.00
2022-09-28T04:22:39.887Z,100.00
2022-09-28T04:25:08.330Z,100.00
2022-09-28T04:27:53.597Z,100.00
2022-09-28T04:43:59.628Z,100.00
2022-09-28T04:46:27.659Z,100.00
2022-09-28T04:48:55.609Z,100.00
2022-09-28T04:51:23.687Z,100.00
2022-09-28T04:53:51.763Z,100.00
2022-09-28T04:56:20.728Z,100.00
2022-09-28T04:58:52.576Z,100.00
2022-09-28T05:01:24.340Z,100.00
2022-09-28T05:03:52.521Z,100.00
2022-09-28T05:06:21.063Z,100.00
2022-09-28T05:08:48.985Z,100.00
2022-09-28T05:11:17.508Z,100.00
2022-09-28T05:13:46.678Z,100.00
2022-09-28T05:16:16.898Z,100.00
2022-09-28T05:18:46.331Z,100.00
2022-09-28T05:21:15.730Z,100.00
2022-09-28T05:23:47.976Z,100.00
2022-09-28T05:26:16.128Z,100.00
2022-09-28T05:28:44.719Z,100.00
2022-09-28T05:31:12.699Z,100.00
2022-09-28T05:33:40.740Z,100.00
2022-09-28T05:36:11.912Z,100.00
2022-09-28T05:38:39.951Z,100.00
2022-09-28T05:41:07.982Z,100.00
2022-09-28T05:43:36.364Z,100.00
2022-09-28T05:46:04.666Z,100.00
2022-09-28T05:48:32.752Z,100.00
2022-09-28T05:51:00.702Z,100.00
2022-09-28T05:53:30.000Z,100.00
2022-09-28T05:55:59.575Z,100.00
2022-09-28T05:58:28.524Z,100.00
2022-09-28T06:00:57.118Z,100.00
2022-09-28T06:03:25.904Z,100.00
2022-09-28T06:05:53.949Z,100.00
2022-09-28T06:08:22.240Z,100.00
2022-09-28T06:10:51.572Z,100.00
2022-09-28T06:13:20.088Z,100.00
2022-09-28T06:15:48.118Z,100.00
2022-09-28T06:18:16.117Z,100.00
2022-09-28T06:20:44.468Z,100.00
2022-09-28T06:23:14.044Z,100.00
2022-09-28T06:25:42.101Z,100.00
2022-09-28T06:28:13.397Z,100.00
2022-09-28T06:30:42.530Z,100.00
2022-09-28T06:33:12.875Z,100.00
2022-09-28T06:35:40.927Z,100.00
2022-09-28T06:38:09.178Z,100.00
2022-09-28T06:40:37.593Z,100.00
2022-09-28T06:43:10.264Z,100.00
2022-09-28T06:45:40.130Z,100.00
2022-09-28T06:48:09.127Z,100.00
2022-09-28T06:50:38.813Z,100.00
2022-09-28T06:53:09.471Z,100.00
2022-09-28T06:55:40.748Z,100.00
2022-09-28T06:58:11.895Z,100.00
2022-09-28T07:00:42.515Z,100.00
2022-09-28T07:03:13.611Z,100.00
2022-09-28T07:05:45.347Z,100.00
2022-09-28T07:08:13.895Z,100.00
2022-09-28T07:10:44.025Z,100.00
2022-09-28T07:13:32.912Z,100.00
2022-09-28T07:16:03.235Z,100.00
2022-09-28T07:18:31.133Z,100.00
2022-09-28T07:20:59.712Z,100.00
2022-09-28T07:23:29.643Z,100.00
2022-09-28T07:25:58.329Z,100.00
2022-09-28T07:28:26.279Z,100.00
2022-09-28T07:30:54.214Z,100.00
2022-09-28T07:33:25.304Z,100.00
2022-09-28T07:35:53.660Z,100.00
2022-09-28T07:38:21.627Z,100.00
2022-09-28T07:41:07.252Z,100.00
2022-09-28T07:43:35.378Z,100.00
2022-09-28T07:46:03.336Z,100.00
2022-09-28T07:48:36.728Z,100.00
2022-09-28T07:51:05.438Z,100.00
2022-09-28T07:53:33.717Z,100.00
2022-09-28T07:56:08.699Z,100.00
2022-09-28T07:58:38.179Z,100.00
2022-09-28T08:01:08.002Z,100.00
2022-09-28T08:03:38.309Z,100.00
2022-09-28T08:06:09.913Z,100.00
2022-09-28T08:08:38.067Z,100.00
2022-09-28T08:11:10.270Z,100.00
2022-09-28T08:13:38.870Z,100.00
2022-09-28T08:16:08.496Z,100.00
2022-09-28T08:18:37.829Z,100.00
2022-09-28T08:21:25.416Z,100.00
2022-09-28T08:23:54.029Z,100.00
2022-09-28T08:26:21.963Z,100.00
2022-09-28T08:28:50.185Z,100.00
2022-09-28T08:31:18.323Z,100.00
2022-09-28T08:33:47.781Z,100.00
2022-09-28T08:36:15.690Z,100.00
2022-09-28T08:38:43.710Z,99.73
2022-09-28T08:41:18.697Z,97.87
2022-09-28T08:44:04.998Z,95.74
2022-09-28T08:46:37.091Z,95.42
2022-09-28T08:49:30.939Z,93.13
2022-09-28T08:52:02.372Z,92.27
2022-09-28T08:54:40.398Z,90.98
2022-09-28T08:57:13.726Z,91.21
2022-09-28T08:59:51.303Z,93.87
2022-09-28T09:02:25.560Z,94.14
2022-09-28T09:04:55.652Z,93.68
2022-09-28T09:07:48.200Z,93.92
2022-09-28T09:10:39.865Z,92.00
2022-09-28T09:13:19.979Z,91.61
2022-09-28T09:15:57.601Z,90.06
2022-09-28T09:18:38.919Z,89.56
2022-09-28T09:21:15.521Z,87.98
2022-09-28T09:23:53.075Z,88.06
2022-09-28T09:26:25.979Z,88.94
2022-09-28T09:29:23.096Z,86.99
2022-09-28T09:32:06.456Z,88.91
2022-09-28T09:34:44.444Z,87.82
2022-09-28T09:37:34.464Z,86.29
2022-09-28T09:40:24.968Z,86.56
2022-09-28T09:43:06.197Z,85.18
2022-09-28T09:45:58.676Z,86.26
2022-09-28T09:48:35.612Z,86.94
2022-09-28T09:51:11.953Z,87.44
2022-09-28T09:53:48.431Z,88.99
2022-09-28T09:56:23.069Z,89.02
2022-09-28T09:58:56.133Z,90.43
2022-09-28T10:01:36.241Z,89.87
2022-09-28T10:04:07.521Z,87.80
2022-09-28T10:06:38.825Z,86.96
2022-09-28T10:09:14.796Z,84.28
2022-09-28T10:11:47.697Z,81.31
2022-09-28T10:14:19.353Z,81.67
2022-09-28T10:16:48.720Z,79.60
2022-09-28T10:19:19.441Z,78.82
2022-09-28T10:21:50.298Z,78.62
2022-09-28T10:24:28.721Z,76.23
2022-09-28T10:27:00.290Z,77.17
2022-09-28T10:29:40.085Z,76.66
2022-09-28T10:32:19.783Z,76.80
2022-09-28T10:34:50.834Z,76.68
2022-09-28T10:37:19.709Z,74.79
2022-09-28T10:39:53.299Z,73.53
2022-09-28T10:42:24.807Z,75.92
2022-09-28T10:44:56.646Z,79.23
2022-09-28T10:47:26.870Z,78.86
2022-09-28T10:49:56.997Z,78.53
2022-09-28T10:52:33.933Z,75.28
2022-09-28T10:55:04.556Z,74.32
2022-09-28T10:57:36.720Z,74.77
2022-09-28T11:00:07.016Z,73.46
2022-09-28T11:02:37.584Z,71.10
2022-09-28T11:05:08.168Z,70.13
2022-09-28T11:07:47.479Z,67.05
2022-09-28T11:10:24.501Z,67.54
2022-09-28T11:12:54.075Z,68.21
2022-09-28T11:15:25.810Z,67.23
2022-09-28T11:17:54.069Z,67.16
2022-09-28T11:20:33.028Z,68.16
2022-09-28T11:23:14.856Z,68.05
2022-09-28T11:25:45.251Z,70.37
2022-09-28T11:28:23.911Z,71.76
2022-09-28T11:30:54.177Z,67.18
2022-09-28T11:33:29.368Z,68.08
2022-09-28T11:36:10.412Z,67.65
2022-09-28T11:38:42.066Z,67.22
2022-09-28T11:41:34.289Z,66.65
2022-09-28T11:44:18.664Z,65.30
2022-09-28T11:46:58.315Z,62.67
2022-09-28T11:49:33.694Z,62.92
2022-09-28T11:52:11.892Z,63.29
2022-09-28T11:54:46.045Z,62.92
2022-09-28T11:57:19.595Z,61.50
2022-09-28T11:59:57.588Z,60.46
2022-09-28T12:02:30.998Z,60.21
2022-09-28T12:05:15.951Z,60.81
2022-09-28T12:07:52.238Z,60.85
2022-09-28T12:10:28.096Z,59.40
2022-09-28T12:13:03.395Z,61.26
2022-09-28T12:16:07.425Z,62.35
2022-09-28T12:18:34.246Z,62.25
2022-09-28T12:21:19.509Z,63.02
2022-09-28T12:23:49.900Z,62.91
2022-09-28T12:26:29.587Z,61.52
2022-09-28T12:29:03.021Z,61.96
2022-09-28T12:31:36.148Z,61.17
2022-09-28T12:34:04.199Z,61.00
2022-09-28T12:36:47.546Z,59.25
2022-09-28T12:39:53.484Z,56.94
2022-09-28T12:42:35.130Z,53.95
2022-09-28T12:45:19.978Z,50.25
2022-09-28T12:48:07.825Z,44.32
2022-09-28T12:50:49.944Z,40.41
2022-09-28T12:53:53.048Z,35.31
2022-09-28T12:56:29.677Z,33.66
2022-09-28T12:59:12.709Z,31.45
2022-09-28T13:02:15.553Z,29.12
2022-09-28T13:04:58.936Z,29.30
2022-09-28T13:07:35.382Z,27.72
2022-09-28T13:10:16.780Z,27.53
2022-09-28T13:12:57.518Z,29.99
2022-09-28T13:15:39.320Z,32.92
2022-09-28T13:18:20.399Z,34.87
2022-09-28T13:21:08.261Z,36.45
2022-09-28T13:23:40.526Z,38.58
2022-09-28T13:26:25.425Z,40.60
2022-09-28T13:28:55.759Z,41.32
2022-09-28T13:31:33.187Z,42.00
2022-09-28T13:34:07.324Z,41.96
2022-09-28T13:36:40.482Z,43.03
2022-09-28T13:39:48.799Z,45.14
2022-09-28T13:42:42.855Z,47.41
2022-09-28T13:45:46.790Z,49.46
2022-09-28T13:48:17.478Z,50.77
2022-09-28T13:51:31.957Z,52.94
2022-09-28T13:54:13.331Z,54.03
2022-09-28T13:56:50.972Z,53.65
2022-09-28T13:59:24.352Z,55.33
2022-09-28T14:01:57.518Z,55.75
2022-09-28T14:04:47.122Z,56.77
2022-09-28T14:07:22.997Z,59.08
2022-09-28T14:10:17.600Z,59.58
2022-09-28T14:12:47.975Z,57.22
2022-09-28T14:15:45.137Z,53.79
2022-09-28T14:18:23.480Z,48.31
2022-09-28T14:21:21.772Z,40.65
2022-09-28T14:24:27.986Z,35.90
2022-09-28T14:27:14.635Z,34.77
2022-09-28T14:29:42.758Z,33.33
2022-09-28T14:32:26.664Z,33.21
2022-09-28T14:34:59.485Z,34.49
2022-09-28T14:37:49.053Z,35.11
2022-09-28T14:40:45.859Z,33.66
2022-09-28T14:43:27.856Z,32.45
2022-09-28T14:46:31.610Z,32.29
2022-09-28T14:49:01.738Z,31.92
2022-09-28T14:52:02.652Z,31.01
2022-09-28T14:54:40.288Z,32.57
2022-09-28T14:57:18.590Z,34.56
2022-09-28T14:59:47.929Z,35.51
2022-09-28T15:02:26.298Z,38.13
2022-09-28T15:05:00.055Z,40.64
2022-09-28T15:07:32.915Z,42.76
2022-09-28T15:10:02.150Z,44.36
2022-09-28T15:12:32.622Z,46.46
2022-09-28T15:15:02.819Z,47.87
2022-09-28T15:17:39.195Z,49.16
2022-09-28T15:20:22.685Z,50.10
2022-09-28T15:22:52.706Z,49.42
2022-09-28T15:25:24.543Z,48.51
2022-09-28T15:27:56.963Z,48.30
2022-09-28T15:30:28.488Z,46.88
2022-09-28T15:33:18.081Z,46.70
2022-09-28T15:35:49.972Z,46.42
2022-09-28T15:38:18.499Z,46.82
2022-09-28T15:40:47.794Z,47.99
2022-09-28T15:43:27.073Z,49.82
2022-09-28T15:46:02.716Z,51.61
2022-09-28T15:48:34.153Z,53.99
2022-09-28T15:51:11.145Z,57.22
2022-09-28T15:53:46.820Z,60.61
2022-09-28T15:56:19.037Z,64.21
2022-09-28T15:59:12.051Z,68.57
2022-09-28T16:01:41.151Z,70.78
2022-09-28T16:04:40.542Z,75.76
2022-09-28T16:07:25.480Z,79.24
2022-09-28T16:10:30.897Z,82.88
2022-09-28T16:13:09.720Z,85.84
2022-09-28T16:15:40.450Z,89.64
2022-09-28T16:18:20.090Z,91.93
2022-09-28T16:20:50.980Z,92.88
2022-09-28T16:23:26.045Z,94.72
2022-09-28T16:25:58.737Z,96.76
2022-09-28T16:28:51.755Z,100.00
2022-09-28T16:31:28.532Z,100.00
2022-09-28T16:33:59.032Z,100.00
2022-09-28T16:36:29.856Z,100.00
2022-09-28T16:38:57.747Z,100.00
2022-09-28T16:41:28.997Z,100.00
2022-09-28T16:44:01.038Z,100.00
2022-09-28T16:46:34.269Z,100.00
2022-09-28T16:49:03.175Z,100.00
2022-09-28T16:51:31.109Z,100.00
2022-09-28T16:54:19.485Z,100.00
2022-09-28T16:56:47.537Z,100.00
2022-09-28T16:59:15.518Z,100.00
2022-09-28T17:01:45.039Z,100.00
2022-09-28T17:04:13.111Z,100.00
2022-09-28T17:06:41.159Z,100.00
2022-09-28T17:09:13.140Z,100.00
2022-09-28T17:11:41.060Z,100.00
2022-09-28T17:14:09.468Z,100.00
2022-09-28T17:19:32.082Z,100.00
2022-09-28T17:22:00.024Z,100.00
2022-09-28T17:24:28.130Z,100.00
2022-09-28T17:26:56.944Z,100.00
2022-09-28T17:29:24.930Z,100.00
2022-09-28T17:31:53.032Z,100.00
2022-09-28T17:34:21.277Z,100.00
2022-09-28T17:36:50.825Z,100.00
2022-09-28T17:39:20.030Z,100.00
2022-09-28T17:41:48.068Z,100.00
2022-09-28T17:44:16.368Z,100.00
2022-09-28T17:46:49.173Z,100.00
2022-09-28T17:49:17.705Z,100.00
2022-09-28T17:51:45.764Z,100.00
2022-09-28T17:54:16.946Z,100.00
2022-09-28T17:56:45.507Z,100.00
2022-09-28T17:59:15.508Z,100.00
2022-09-28T18:01:43.653Z,100.00
2022-09-28T18:04:27.905Z,100.00
2022-09-28T18:07:01.571Z,100.00
2022-09-28T18:09:31.155Z,100.00
2022-09-28T18:12:01.764Z,100.00
2022-09-28T18:14:30.146Z,100.00
2022-09-28T18:16:58.064Z,100.00
2022-09-28T18:19:31.181Z,100.00
2022-09-28T18:22:01.511Z,100.00
2022-09-28T18:24:32.562Z,100.00
2022-09-28T18:27:00.593Z,100.00
2022-09-28T18:29:32.920Z,100.00
2022-09-28T18:32:01.577Z,100.00
2022-09-28T18:34:29.561Z,100.00
2022-09-28T18:36:59.562Z,100.00
2022-09-28T18:39:27.730Z,100.00
2022-09-28T18:41:57.292Z,100.00
2022-09-28T18:44:25.250Z,100.00
2022-09-28T18:46:53.171Z,100.00
2022-09-28T18:49:21.421Z,100.00
2022-09-28T18:51:49.345Z,100.00
2022-09-28T18:54:17.537Z,100.00
2022-09-28T18:56:47.222Z,100.00
2022-09-28T18:59:16.756Z,100.00
2022-09-28T19:01:44.718Z,100.00
2022-09-28T19:04:13.571Z,100.00
2022-09-28T19:06:44.589Z,100.00
2022-09-28T19:09:13.191Z,100.00
2022-09-28T19:11:41.312Z,100.00
2022-09-28T19:14:11.127Z,100.00
2022-09-28T19:16:40.444Z,100.00
2022-09-28T19:19:09.737Z,100.00
2022-09-28T19:21:37.710Z,100.00
2022-09-28T19:24:06.041Z,100.00
2022-09-28T19:26:34.730Z,100.00
2022-09-28T19:29:03.065Z,100.00
2022-09-28T19:31:32.707Z,100.00
2022-09-28T19:34:02.241Z,100.00
2022-09-28T19:36:30.801Z,100.00
2022-09-28T19:39:02.207Z,100.00
2022-09-28T19:41:51.328Z,100.00
2022-09-28T19:44:24.953Z,100.00
2022-09-28T19:46:54.607Z,100.00
2022-09-28T19:49:25.457Z,100.00
2022-09-28T19:52:13.908Z,100.00
2022-09-28T19:54:44.615Z,100.00
2022-09-28T19:57:14.564Z,100.00
2022-09-28T19:59:42.786Z,100.00
2022-09-28T20:02:13.436Z,100.00
2022-09-28T20:04:42.856Z,100.00
2022-09-28T20:07:12.096Z,100.00
2022-09-28T20:09:40.004Z,100.00
2022-09-28T20:12:07.908Z,100.00
2022-09-28T20:14:39.508Z,100.00
2022-09-28T20:17:08.763Z,100.00
2022-09-28T20:19:36.751Z,100.00
2022-09-28T20:22:06.343Z,100.00
2022-09-28T20:24:34.364Z,100.00
2022-09-28T20:27:02.909Z,100.00
2022-09-28T20:29:33.451Z,100.00
2022-09-28T20:32:02.114Z,100.00
2022-09-28T20:34:30.042Z,100.00
2022-09-28T20:36:57.951Z,100.00
2022-09-28T20:39:27.443Z,100.00
2022-09-28T20:41:55.612Z,100.00
2022-09-28T20:44:23.657Z,100.00
2022-09-28T20:46:52.121Z,100.00
2022-09-28T20:49:20.185Z,100.00
2022-09-28T20:51:48.123Z,100.00
2022-09-28T20:54:16.125Z,100.00
2022-09-28T20:56:48.098Z,100.00
2022-09-28T20:59:16.446Z,100.00
2022-09-28T21:01:44.679Z,100.00
2022-09-28T21:04:13.055Z,100.00
2022-09-28T21:06:42.815Z,100.00
2022-09-28T21:09:12.228Z,100.00
2022-09-28T21:11:40.369Z,100.00
2022-09-28T21:14:10.822Z,100.00
2022-09-28T21:16:39.135Z,100.00
2022-09-28T21:19:07.138Z,100.00
2022-09-28T21:21:37.634Z,100.00
2022-09-28T21:24:05.852Z,100.00
2022-09-28T21:26:35.074Z,100.00
2022-09-28T21:29:04.651Z,100.00
2022-09-28T21:31:39.392Z,100.00
2022-09-28T21:34:08.216Z,100.00
2022-09-28T21:36:36.319Z,100.00
2022-09-28T21:39:09.560Z,100.00
2022-09-28T21:41:38.414Z,100.00
2022-09-28T21:44:06.795Z,100.00
2022-09-28T21:46:36.504Z,100.00
2022-09-28T21:49:07.502Z,100.00
2022-09-28T21:51:36.374Z,100.00
2022-09-28T21:54:04.468Z,100.00
2022-09-28T21:56:32.415Z,100.00
2022-09-28T21:59:01.316Z,100.00
2022-09-28T22:01:29.482Z,100.00
2022-09-28T22:03:59.248Z,100.00
2022-09-28T22:06:29.068Z,100.00
2022-09-28T22:08:57.794Z,100.00
2022-09-28T22:11:27.643Z,100.00
2022-09-28T22:13:57.284Z,100.00
2022-09-28T22:16:27.382Z,100.00
2022-09-28T22:18:55.844Z,100.00
2022-09-28T22:21:26.614Z,100.00
2022-09-28T22:23:55.090Z,100.00
2022-09-28T22:26:24.796Z,100.00
2022-09-28T22:28:54.666Z,100.00
2022-09-28T22:31:25.408Z,100.00
2022-09-28T22:33:53.357Z,100.00
2022-09-28T22:36:21.602Z,100.00
2022-09-28T22:38:51.016Z,100.00
2022-09-28T22:41:21.215Z,100.00
2022-09-28T22:43:49.902Z,100.00
2022-09-28T22:46:19.365Z,100.00
2022-09-28T22:48:48.317Z,100.00
2022-09-28T22:51:16.897Z,100.00
2022-09-28T22:53:45.361Z,100.00
2022-09-28T22:56:18.825Z,100.00
2022-09-28T22:58:47.695Z,100.00
2022-09-28T23:01:17.367Z,100.00
2022-09-28T23:03:45.850Z,100.00
2022-09-28T23:06:16.662Z,100.00
2022-09-28T23:08:45.632Z,100.00
2022-09-28T23:11:15.517Z,100.00
2022-09-28T23:13:43.438Z,100.00
2022-09-28T23:16:14.824Z,100.00
2022-09-28T23:18:43.802Z,100.00
2022-09-28T23:21:13.137Z,100.00
2022-09-28T23:23:41.040Z,100.00
2022-09-28T23:26:15.469Z,100.00
2022-09-28T23:28:43.560Z,100.00
2022-09-28T23:31:13.721Z,100.00
2022-09-28T23:33:41.811Z,100.00
2022-09-28T23:36:10.330Z,100.00
2022-09-28T23:38:38.992Z,100.00
2022-09-28T23:41:06.916Z,100.00
2022-09-28T23:43:36.280Z,100.00
2022-09-28T23:46:05.253Z,100.00
2022-09-28T23:48:33.272Z,100.00
2022-09-28T23:51:01.371Z,100.00
2022-09-28T23:53:29.331Z,100.00
2022-09-28T23:55:57.256Z,100.00
2022-09-28T23:58:25.867Z,100.00
